createdAt,value
2017-12-13T00:01:21.077Z,73.80
2017-12-13T00:03:50.375Z,73.90
2017-12-13T00:06:17.931Z,73.90
2017-12-13T00:08:45.560Z,73.80
2017-12-13T00:11:13.041Z,73.90
2017-12-13T00:13:41.549Z,73.90
2017-12-13T00:16:09.172Z,73.80
2017-12-13T00:18:36.784Z,74.00
2017-12-13T00:21:04.261Z,74.00
2017-12-13T00:23:31.785Z,74.10
2017-12-13T00:26:02.013Z,74.60
2017-12-13T00:28:30.321Z,74.40
2017-12-13T00:30:59.822Z,74.70
2017-12-13T00:33:28.298Z,74.50
2017-12-13T00:35:56.186Z,74.40
2017-12-13T00:38:24.351Z,74.20
2017-12-13T00:40:53.781Z,74.70
2017-12-13T00:43:21.265Z,74.10
2017-12-13T00:45:49.297Z,74.00
2017-12-13T00:48:17.812Z,74.00
2017-12-13T00:50:45.664Z,73.80
2017-12-13T00:53:13.188Z,73.30
2017-12-13T00:55:41.647Z,73.50
2017-12-13T00:58:13.005Z,73.50
2017-12-13T01:00:41.020Z,73.50
2017-12-13T01:03:08.658Z,73.50
2017-12-13T01:05:37.644Z,73.40
2017-12-13T01:08:05.163Z,73.40
2017-12-13T01:10:36.471Z,73.50
2017-12-13T01:13:04.433Z,73.30
2017-12-13T01:15:32.355Z,73.50
2017-12-13T01:18:00.305Z,73.40
2017-12-13T01:20:28.017Z,73.30
2017-12-13T01:22:56.893Z,73.20
2017-12-13T01:25:27.280Z,72.90
2017-12-13T01:27:55.257Z,73.20
2017-12-13T01:30:24.148Z,72.80
2017-12-13T01:32:51.817Z,72.80
2017-12-13T01:35:19.383Z,72.80
2017-12-13T01:37:47.659Z,72.90
2017-12-13T01:40:19.252Z,72.50
2017-12-13T01:42:48.042Z,72.40
2017-12-13T01:45:15.929Z,72.00
2017-12-13T01:47:45.256Z,72.30
2017-12-13T01:50:13.627Z,72.10
2017-12-13T01:52:41.120Z,71.30
2017-12-13T01:55:08.600Z,71.00
2017-12-13T01:57:36.901Z,69.10
2017-12-13T02:00:04.380Z,69.10
2017-12-13T02:02:32.166Z,69.00
2017-12-13T02:04:59.646Z,68.50
2017-12-13T02:07:27.258Z,68.50
2017-12-13T02:09:58.445Z,68.50
2017-12-13T02:12:26.054Z,67.90
2017-12-13T02:14:55.814Z,67.00
2017-12-13T02:17:23.905Z,67.00
2017-12-13T02:19:51.478Z,67.80
2017-12-13T02:22:19.841Z,68.40
2017-12-13T02:24:47.375Z,68.30
2017-12-13T02:27:14.931Z,68.30
2017-12-13T02:29:43.352Z,69.00
2017-12-13T02:32:10.908Z,69.00
2017-12-13T02:34:40.385Z,69.70
2017-12-13T02:37:08.697Z,70.10
2017-12-13T02:39:36.206Z,70.10
2017-12-13T02:42:04.537Z,70.50
2017-12-13T02:44:32.080Z,71.00
2017-12-13T02:47:00.380Z,71.70
2017-12-13T02:49:28.836Z,71.60
2017-12-13T02:51:57.125Z,72.00
2017-12-13T02:54:25.984Z,72.00
2017-12-13T02:56:53.472Z,72.00
2017-12-13T02:59:22.170Z,71.90
2017-12-13T03:01:50.439Z,71.80
2017-12-13T03:04:18.708Z,71.70
2017-12-13T03:06:46.985Z,71.60
2017-12-13T03:09:16.339Z,71.60
2017-12-13T03:11:44.147Z,71.60
2017-12-13T03:14:11.786Z,71.90
2017-12-13T03:16:40.042Z,72.00
2017-12-13T03:19:08.522Z,72.60
2017-12-13T03:21:37.638Z,72.60
2017-12-13T03:24:05.472Z,72.70
2017-12-13T03:26:32.959Z,73.20
2017-12-13T03:29:00.525Z,73.90
2017-12-13T03:31:29.664Z,74.90
2017-12-13T03:33:57.285Z,75.40
2017-12-13T03:36:26.525Z,76.40
2017-12-13T03:38:54.024Z,76.30
2017-12-13T03:41:21.853Z,76.20
2017-12-13T03:43:49.364Z,76.20
2017-12-13T03:46:17.618Z,76.50
2017-12-13T03:48:45.132Z,76.50
2017-12-13T03:51:14.577Z,76.70
2017-12-13T03:53:42.796Z,76.70
2017-12-13T03:56:10.404Z,76.90
2017-12-13T03:58:37.998Z,76.80
2017-12-13T04:01:05.656Z,76.80
2017-12-13T04:03:33.221Z,76.80
2017-12-13T04:06:00.794Z,76.70
2017-12-13T04:08:29.480Z,76.40
2017-12-13T04:10:57.818Z,76.60
2017-12-13T04:13:26.570Z,76.50
2017-12-13T04:15:54.212Z,76.50
2017-12-13T04:18:23.716Z,76.90
2017-12-13T04:20:52.195Z,76.90
2017-12-13T04:23:19.749Z,76.90
2017-12-13T04:25:47.268Z,76.50
2017-12-13T04:28:15.556Z,77.20
2017-12-13T04:30:44.255Z,77.20
2017-12-13T04:33:12.520Z,76.40
2017-12-13T04:35:41.732Z,76.90
2017-12-13T04:38:10.007Z,76.50
2017-12-13T04:40:37.501Z,76.20
2017-12-13T04:43:05.045Z,76.70
2017-12-13T04:45:33.485Z,76.10
2017-12-13T04:48:01.830Z,75.90
2017-12-13T04:50:29.629Z,75.80
2017-12-13T04:52:57.100Z,75.80
2017-12-13T04:55:25.061Z,75.70
2017-12-13T04:57:53.361Z,75.60
2017-12-13T05:00:20.857Z,75.50
2017-12-13T05:02:49.340Z,75.70
2017-12-13T05:05:16.836Z,75.40
2017-12-13T05:07:45.193Z,75.60
2017-12-13T05:10:13.604Z,75.70
2017-12-13T05:12:41.137Z,75.60
2017-12-13T05:15:08.718Z,76.50
2017-12-13T05:17:36.453Z,75.80
2017-12-13T05:20:03.972Z,75.90
2017-12-13T05:22:31.485Z,75.30
2017-12-13T05:24:58.991Z,74.70
2017-12-13T05:27:26.476Z,75.00
2017-12-13T05:29:53.960Z,75.00
2017-12-13T05:32:21.448Z,74.90
2017-12-13T05:34:49.704Z,75.40
2017-12-13T05:37:17.187Z,74.90
2017-12-13T05:39:47.422Z,74.90
2017-12-13T05:42:15.755Z,74.90
2017-12-13T05:44:43.256Z,74.80
2017-12-13T05:47:11.529Z,74.00
2017-12-13T05:49:39.029Z,74.00
2017-12-13T05:52:06.699Z,74.30
2017-12-13T05:54:34.957Z,74.40
2017-12-13T05:57:03.217Z,74.80
2017-12-13T05:59:30.797Z,74.80
2017-12-13T06:01:59.044Z,75.00
2017-12-13T06:04:26.579Z,74.90
2017-12-13T06:06:54.616Z,75.20
2017-12-13T06:09:23.544Z,75.00
2017-12-13T06:11:51.081Z,75.00
2017-12-13T06:14:19.355Z,75.30
2017-12-13T06:16:46.891Z,75.80
2017-12-13T06:19:14.372Z,76.00
2017-12-13T06:21:41.956Z,75.90
2017-12-13T06:24:10.365Z,76.00
2017-12-13T06:26:37.864Z,76.00
2017-12-13T06:29:05.354Z,76.10
2017-12-13T06:31:33.153Z,76.10
2017-12-13T06:34:01.516Z,76.00
2017-12-13T06:36:29.771Z,76.10
2017-12-13T06:38:57.885Z,76.10
2017-12-13T06:41:26.134Z,76.00
2017-12-13T06:43:53.621Z,76.00
2017-12-13T06:46:21.166Z,75.80
2017-12-13T06:48:48.657Z,75.80
2017-12-13T06:51:16.609Z,75.70
2017-12-13T06:53:44.863Z,75.50
2017-12-13T06:56:12.458Z,75.40
2017-12-13T06:58:40.719Z,75.70
2017-12-13T07:01:08.847Z,75.70
2017-12-13T07:03:38.923Z,75.90
2017-12-13T07:06:06.417Z,75.50
2017-12-13T07:08:33.948Z,76.10
2017-12-13T07:11:03.113Z,75.70
2017-12-13T07:13:30.669Z,75.90
2017-12-13T07:15:58.198Z,76.10
2017-12-13T07:18:26.479Z,76.20
2017-12-13T07:20:54.856Z,76.30
2017-12-13T07:23:23.169Z,76.00
2017-12-13T07:25:50.889Z,76.00
2017-12-13T07:28:18.499Z,76.10
2017-12-13T07:30:48.367Z,76.20
2017-12-13T07:33:15.854Z,76.30
2017-12-13T07:35:45.130Z,76.00
2017-12-13T07:38:12.715Z,76.00
2017-12-13T07:40:41.023Z,76.10
2017-12-13T07:43:08.745Z,76.00
2017-12-13T07:45:37.355Z,75.40
2017-12-13T07:48:04.900Z,75.40
2017-12-13T07:50:33.237Z,75.10
2017-12-13T07:53:01.706Z,75.00
2017-12-13T07:55:32.509Z,74.70
2017-12-13T07:58:00.105Z,74.70
2017-12-13T08:00:27.728Z,74.30
2017-12-13T08:03:00.758Z,74.30
2017-12-13T08:05:29.268Z,73.30
2017-12-13T08:07:56.785Z,74.00
2017-12-13T08:10:25.038Z,72.80
2017-12-13T08:12:53.397Z,73.20
2017-12-13T08:15:21.422Z,73.30
2017-12-13T08:17:50.880Z,72.20
2017-12-13T08:20:21.671Z,72.00
2017-12-13T08:22:53.281Z,71.90
2017-12-13T08:27:51.307Z,71.70
2017-12-13T08:30:18.985Z,71.60
2017-12-13T08:32:46.531Z,71.20
2017-12-13T08:35:15.675Z,70.30
2017-12-13T08:37:45.841Z,70.20
2017-12-13T08:40:13.690Z,70.10
2017-12-13T08:42:41.277Z,70.00
2017-12-13T08:45:08.789Z,68.60
2017-12-13T08:47:36.282Z,68.50
2017-12-13T08:50:04.113Z,68.30
2017-12-13T08:52:32.482Z,67.90
2017-12-13T08:55:00.049Z,67.90
2017-12-13T08:57:27.541Z,67.50
2017-12-13T08:59:55.070Z,67.10
2017-12-13T09:02:22.667Z,66.80
2017-12-13T09:04:50.919Z,66.10
2017-12-13T09:07:19.253Z,65.50
2017-12-13T09:09:46.764Z,65.40
2017-12-13T09:12:15.108Z,65.30
2017-12-13T09:14:42.658Z,65.30
2017-12-13T09:17:10.217Z,64.90
2017-12-13T09:19:39.302Z,64.70
2017-12-13T09:22:06.964Z,64.40
2017-12-13T09:24:35.382Z,63.80
2017-12-13T09:27:02.985Z,63.80
2017-12-13T09:29:30.476Z,63.70
2017-12-13T09:31:59.056Z,63.40
2017-12-13T09:34:27.336Z,63.40
2017-12-13T09:36:56.342Z,63.70
2017-12-13T09:39:24.610Z,63.80
2017-12-13T09:41:52.929Z,63.00
2017-12-13T09:44:20.415Z,63.00
2017-12-13T09:46:47.943Z,63.20
2017-12-13T09:49:15.465Z,63.30
2017-12-13T09:51:43.205Z,62.10
2017-12-13T09:54:10.748Z,62.30
2017-12-13T09:56:38.257Z,61.90
2017-12-13T09:59:05.853Z,61.50
2017-12-13T10:01:34.138Z,61.20
2017-12-13T10:04:01.649Z,61.20
2017-12-13T10:06:29.277Z,61.20
2017-12-13T10:08:56.822Z,61.00
2017-12-13T10:11:25.104Z,60.40
2017-12-13T10:13:53.377Z,60.50
2017-12-13T10:16:21.718Z,60.20
2017-12-13T10:18:49.213Z,60.10
2017-12-13T10:21:16.973Z,60.50
2017-12-13T10:23:44.593Z,60.60
2017-12-13T10:26:12.103Z,60.60
2017-12-13T10:28:39.646Z,61.00
2017-12-13T10:31:07.171Z,60.80
2017-12-13T10:33:34.714Z,61.00
2017-12-13T10:36:02.988Z,60.40
2017-12-13T10:38:32.165Z,60.10
2017-12-13T10:40:59.715Z,59.90
2017-12-13T10:43:27.518Z,60.00
2017-12-13T10:45:55.030Z,60.00
2017-12-13T10:48:22.667Z,60.10
2017-12-13T10:50:50.187Z,59.90
2017-12-13T10:53:17.676Z,60.10
2017-12-13T10:55:46.745Z,59.80
2017-12-13T10:58:14.432Z,59.80
2017-12-13T11:00:42.240Z,59.80
2017-12-13T11:03:09.812Z,59.90
2017-12-13T11:05:37.342Z,59.90
2017-12-13T11:08:05.614Z,59.60
2017-12-13T11:10:33.205Z,59.60
2017-12-13T11:13:01.466Z,59.70
2017-12-13T11:15:29.047Z,59.70
2017-12-13T11:17:57.341Z,59.90
2017-12-13T11:20:24.838Z,59.90
2017-12-13T11:22:52.361Z,59.80
2017-12-13T11:25:19.897Z,59.60
2017-12-13T11:27:47.380Z,59.70
2017-12-13T11:30:14.928Z,60.00
2017-12-13T11:32:43.273Z,59.60
2017-12-13T11:35:10.773Z,59.50
2017-12-13T11:37:38.301Z,59.40
2017-12-13T11:40:05.846Z,59.60
2017-12-13T11:42:33.556Z,59.70
2017-12-13T11:45:01.896Z,59.40
2017-12-13T11:47:29.426Z,59.30
2017-12-13T11:49:58.590Z,59.40
2017-12-13T11:52:26.136Z,59.40
2017-12-13T11:54:53.664Z,59.30
2017-12-13T11:57:21.164Z,59.50
2017-12-13T11:59:48.680Z,59.60
2017-12-13T12:02:16.207Z,59.60
2017-12-13T12:04:43.695Z,59.30
2017-12-13T12:07:12.002Z,59.60
2017-12-13T12:09:39.555Z,59.60
2017-12-13T12:12:07.831Z,59.60
2017-12-13T12:14:36.096Z,59.20
2017-12-13T12:17:04.791Z,59.20
2017-12-13T12:19:32.285Z,59.40
2017-12-13T12:21:59.812Z,59.40
2017-12-13T12:24:27.328Z,59.50
2017-12-13T12:26:54.883Z,59.20
2017-12-13T12:29:22.373Z,59.00
2017-12-13T12:31:49.879Z,58.90
2017-12-13T12:34:18.181Z,58.80
2017-12-13T12:36:45.717Z,58.70
2017-12-13T12:39:13.229Z,58.70
2017-12-13T12:41:41.191Z,58.50
2017-12-13T12:44:08.801Z,58.40
2017-12-13T12:46:37.810Z,58.40
2017-12-13T12:49:05.299Z,58.30
2017-12-13T12:51:33.607Z,58.10
2017-12-13T12:54:01.089Z,58.10
2017-12-13T12:56:28.643Z,58.00
2017-12-13T12:58:56.112Z,58.00
2017-12-13T13:01:23.639Z,58.50
2017-12-13T13:03:51.155Z,58.40
2017-12-13T13:06:18.642Z,58.60
2017-12-13T13:08:46.909Z,59.00
2017-12-13T13:11:14.404Z,58.70
2017-12-13T13:13:41.965Z,58.60
2017-12-13T13:16:10.241Z,58.60
2017-12-13T13:18:37.741Z,58.60
2017-12-13T13:21:05.270Z,58.30
2017-12-13T13:23:32.790Z,58.80
2017-12-13T13:26:00.328Z,58.60
2017-12-13T13:28:27.834Z,58.50
2017-12-13T13:30:55.308Z,58.60
2017-12-13T13:33:23.625Z,58.60
2017-12-13T13:35:51.158Z,59.00
2017-12-13T13:38:19.412Z,59.20
2017-12-13T13:40:46.921Z,58.70
2017-12-13T13:43:14.461Z,58.80
2017-12-13T13:45:42.816Z,58.90
2017-12-13T13:48:10.317Z,58.90
2017-12-13T13:50:38.588Z,59.00
2017-12-13T13:53:06.866Z,59.20
2017-12-13T13:55:34.449Z,59.20
2017-12-13T13:58:02.766Z,59.40
2017-12-13T14:00:30.268Z,59.40
2017-12-13T14:02:57.786Z,59.00
2017-12-13T14:05:25.288Z,59.40
2017-12-13T14:07:52.822Z,59.10
2017-12-13T14:10:20.331Z,59.20
2017-12-13T14:12:48.613Z,59.20
2017-12-13T14:15:16.097Z,59.20
2017-12-13T14:17:43.598Z,59.40
2017-12-13T14:20:11.107Z,59.50
2017-12-13T14:22:39.405Z,59.20
2017-12-13T14:25:06.963Z,59.20
2017-12-13T14:27:35.021Z,58.80
2017-12-13T14:30:03.407Z,59.20
2017-12-13T14:32:32.097Z,59.20
2017-12-13T14:35:00.380Z,59.30
2017-12-13T14:37:28.653Z,59.70
2017-12-13T14:39:56.163Z,59.70
2017-12-13T14:42:23.675Z,59.60
2017-12-13T14:44:51.974Z,59.50
2017-12-13T14:47:20.274Z,59.50
2017-12-13T14:49:47.812Z,59.40
2017-12-13T14:52:16.095Z,59.70
2017-12-13T14:54:44.374Z,59.90
2017-12-13T14:57:12.653Z,60.00
2017-12-13T14:59:40.960Z,59.70
2017-12-13T15:02:08.474Z,59.70
2017-12-13T15:04:35.964Z,59.60
2017-12-13T15:07:06.509Z,59.60
2017-12-13T15:09:34.076Z,60.00
2017-12-13T15:12:03.062Z,58.90
2017-12-13T15:14:31.708Z,59.00
2017-12-13T15:16:59.239Z,58.90
2017-12-13T15:19:26.764Z,59.20
2017-12-13T15:21:54.323Z,58.90
2017-12-13T15:24:21.832Z,58.90
2017-12-13T15:26:49.559Z,58.70
2017-12-13T15:29:17.837Z,58.90
2017-12-13T15:31:46.348Z,58.70
2017-12-13T15:34:15.414Z,58.60
2017-12-13T15:36:43.714Z,58.40
2017-12-13T15:39:12.030Z,58.40
2017-12-13T15:41:39.527Z,58.90
2017-12-13T15:44:07.048Z,58.50
2017-12-13T15:46:34.730Z,58.70
2017-12-13T15:49:02.265Z,58.50
2017-12-13T15:51:29.787Z,58.90
2017-12-13T15:53:58.202Z,58.60
2017-12-13T15:56:26.518Z,58.40
2017-12-13T15:58:54.019Z,58.40
2017-12-13T16:01:21.538Z,58.30
2017-12-13T16:03:49.076Z,58.40
2017-12-13T16:06:17.413Z,58.50
2017-12-13T16:08:44.911Z,58.40
2017-12-13T16:11:13.168Z,58.90
2017-12-13T16:13:41.516Z,58.60
2017-12-13T16:16:09.002Z,58.60
2017-12-13T16:18:36.541Z,58.30
2017-12-13T16:21:04.055Z,58.40
2017-12-13T16:23:31.549Z,58.20
2017-12-13T16:25:59.049Z,58.60
2017-12-13T16:28:26.549Z,58.10
2017-12-13T16:30:54.088Z,58.00
2017-12-13T16:33:22.329Z,57.90
2017-12-13T16:35:49.825Z,57.80
2017-12-13T16:38:17.333Z,57.60
2017-12-13T16:40:45.989Z,57.00
2017-12-13T16:43:14.270Z,56.90
2017-12-13T16:45:41.862Z,56.70
2017-12-13T16:48:10.137Z,57.10
2017-12-13T16:50:37.645Z,57.00
2017-12-13T16:53:05.170Z,56.70
2017-12-13T16:55:33.433Z,57.00
2017-12-13T16:58:00.953Z,56.60
2017-12-13T17:00:29.367Z,56.50
2017-12-13T17:02:56.864Z,56.20
2017-12-13T17:05:25.154Z,56.10
2017-12-13T17:07:52.667Z,56.00
2017-12-13T17:10:20.183Z,56.00
2017-12-13T17:12:48.444Z,56.00
2017-12-13T17:15:16.736Z,56.00
2017-12-13T17:17:44.998Z,56.00
2017-12-13T17:20:12.510Z,55.90
2017-12-13T17:22:40.026Z,56.00
2017-12-13T17:25:07.547Z,56.00
2017-12-13T17:27:35.060Z,56.50
2017-12-13T17:30:03.325Z,58.30
2017-12-13T17:32:30.839Z,58.80
2017-12-13T17:34:58.318Z,59.00
2017-12-13T17:37:25.809Z,59.70
2017-12-13T17:39:53.434Z,61.20
2017-12-13T17:42:20.917Z,62.50
2017-12-13T17:44:48.453Z,66.00
2017-12-13T17:47:15.972Z,68.00
2017-12-13T17:49:43.463Z,69.50
2017-12-13T17:52:11.722Z,71.90
2017-12-13T17:54:39.893Z,72.00
2017-12-13T17:57:07.377Z,73.20
2017-12-13T17:59:35.661Z,75.30
2017-12-13T18:02:03.903Z,76.80
2017-12-13T18:04:31.421Z,76.80
2017-12-13T18:06:59.696Z,75.00
2017-12-13T18:09:27.215Z,75.00
2017-12-13T18:11:54.734Z,75.40
2017-12-13T18:14:22.293Z,75.30
2017-12-13T18:16:49.849Z,73.50
2017-12-13T18:19:17.393Z,73.10
2017-12-13T18:21:46.153Z,73.80
2017-12-13T18:24:14.485Z,73.70
2017-12-13T18:26:42.857Z,72.50
2017-12-13T18:29:11.148Z,72.80
2017-12-13T18:31:38.940Z,72.80
2017-12-13T18:34:06.801Z,74.60
2017-12-13T18:36:35.214Z,74.90
2017-12-13T18:39:02.892Z,75.10
2017-12-13T18:41:30.785Z,75.80
2017-12-13T18:43:58.500Z,76.00
2017-12-13T18:46:26.022Z,77.40
2017-12-13T18:48:55.470Z,78.40
2017-12-13T18:51:23.177Z,78.30
2017-12-13T18:53:52.335Z,80.00
2017-12-13T18:56:20.032Z,79.30
2017-12-13T18:58:47.567Z,79.70
2017-12-13T19:01:15.345Z,80.30
2017-12-13T19:03:43.168Z,79.70
2017-12-13T19:06:11.707Z,80.60
2017-12-13T19:08:39.613Z,80.60
2017-12-13T19:11:07.802Z,82.00
2017-12-13T19:13:36.116Z,82.90
2017-12-13T19:16:04.405Z,82.80
2017-12-13T19:18:31.968Z,82.20
2017-12-13T19:20:59.495Z,82.40
2017-12-13T19:23:27.527Z,82.20
2017-12-13T19:25:55.029Z,82.00
2017-12-13T19:28:23.490Z,82.50
2017-12-13T19:30:51.028Z,83.00
2017-12-13T19:33:18.517Z,83.50
2017-12-13T19:35:46.222Z,83.20
2017-12-13T19:38:14.583Z,84.70
2017-12-13T19:40:42.088Z,84.10
2017-12-13T19:43:10.492Z,84.70
2017-12-13T19:45:38.067Z,84.70
2017-12-13T19:48:06.679Z,85.00
2017-12-13T19:50:34.154Z,85.10
2017-12-13T19:53:02.516Z,85.20
2017-12-13T19:55:30.158Z,85.00
2017-12-13T19:57:58.686Z,85.00
2017-12-13T20:00:26.256Z,85.00
2017-12-13T20:02:53.830Z,85.60
2017-12-13T20:05:23.338Z,85.00
2017-12-13T20:07:51.637Z,85.00
2017-12-13T20:10:20.360Z,84.70
2017-12-13T20:12:48.621Z,84.50
2017-12-13T20:15:16.996Z,85.40
2017-12-13T20:17:44.612Z,85.70
2017-12-13T20:20:12.880Z,86.30
2017-12-13T20:22:41.153Z,85.40
2017-12-13T20:25:09.410Z,85.30
2017-12-13T20:27:37.295Z,85.40
2017-12-13T20:30:04.873Z,85.80
2017-12-13T20:32:32.832Z,85.10
2017-12-13T20:35:00.388Z,84.60
2017-12-13T20:37:28.728Z,84.60
2017-12-13T20:39:56.239Z,84.10
2017-12-13T20:42:23.722Z,84.70
2017-12-13T20:44:51.237Z,85.40
2017-12-13T20:47:19.848Z,84.50
2017-12-13T20:49:47.421Z,85.00
2017-12-13T20:52:15.063Z,84.90
2017-12-13T20:54:43.495Z,85.50
2017-12-13T20:57:11.246Z,85.50
2017-12-13T20:59:38.799Z,85.00
2017-12-13T21:02:07.043Z,85.10
2017-12-13T21:04:34.690Z,84.90
2017-12-13T21:07:02.342Z,85.00
2017-12-13T21:09:29.866Z,84.50
2017-12-13T21:11:57.798Z,84.10
2017-12-13T21:14:25.453Z,84.80
2017-12-13T21:16:53.186Z,84.60
2017-12-13T21:19:20.677Z,84.00
2017-12-13T21:21:48.790Z,83.60
2017-12-13T21:24:17.596Z,84.40
2017-12-13T21:26:46.087Z,84.40
2017-12-13T21:29:13.669Z,84.30
2017-12-13T21:31:42.170Z,84.00
2017-12-13T21:34:09.929Z,83.50
2017-12-13T21:36:37.463Z,84.00
2017-12-13T21:39:05.385Z,84.00
2017-12-13T21:41:32.872Z,84.50
2017-12-13T21:44:00.585Z,84.00
2017-12-13T21:46:28.121Z,83.50
2017-12-13T21:48:56.795Z,83.10
2017-12-13T21:51:24.308Z,82.60
2017-12-13T21:53:51.977Z,82.10
2017-12-13T21:56:19.437Z,82.30
2017-12-13T21:58:46.979Z,82.00
2017-12-13T22:01:15.229Z,82.00
2017-12-13T22:03:42.729Z,82.00
2017-12-13T22:06:10.219Z,82.30
2017-12-13T22:08:37.732Z,81.60
2017-12-13T22:11:05.989Z,81.30
2017-12-13T22:13:33.906Z,81.30
2017-12-13T22:16:01.661Z,81.20
2017-12-13T22:18:29.966Z,80.80
2017-12-13T22:20:57.510Z,81.40
2017-12-13T22:23:25.873Z,80.70
2017-12-13T22:25:54.191Z,80.70
2017-12-13T22:28:21.685Z,80.70
2017-12-13T22:30:49.169Z,80.30
2017-12-13T22:33:16.801Z,80.50
2017-12-13T22:35:44.322Z,80.60
2017-12-13T22:38:12.691Z,80.40
2017-12-13T22:40:40.811Z,80.30
2017-12-13T22:43:08.304Z,80.30
2017-12-13T22:45:35.786Z,80.10
2017-12-13T22:48:04.287Z,79.50
2017-12-13T22:50:32.548Z,79.70
2017-12-13T22:53:02.449Z,79.60
2017-12-13T22:55:30.584Z,79.60
2017-12-13T22:57:58.096Z,79.20
2017-12-13T23:00:37.646Z,79.20
2017-12-13T23:03:05.154Z,79.10
2017-12-13T23:05:32.663Z,79.30
2017-12-13T23:08:00.192Z,78.60
2017-12-13T23:10:27.876Z,78.90
2017-12-13T23:12:55.616Z,78.70
2017-12-13T23:15:23.317Z,78.50
2017-12-13T23:17:51.654Z,78.70
2017-12-13T23:20:20.061Z,78.80
2017-12-13T23:22:47.545Z,78.70
2017-12-13T23:25:15.045Z,78.30
2017-12-13T23:27:43.332Z,78.60
2017-12-13T23:30:11.680Z,77.80
2017-12-13T23:32:40.697Z,78.30
2017-12-13T23:35:08.362Z,78.20
2017-12-13T23:37:35.936Z,78.50
2017-12-13T23:40:03.789Z,78.00
2017-12-13T23:42:32.296Z,77.90
2017-12-13T23:44:59.815Z,77.80
2017-12-13T23:47:27.865Z,78.10
2017-12-13T23:49:56.184Z,77.70
2017-12-13T23:52:24.837Z,77.70
2017-12-13T23:54:52.612Z,77.80
2017-12-13T23:57:20.113Z,77.70
2017-12-13T23:59:47.629Z,77.90
